sensor_id;sensor_type;location;lat;lon;timestamp;P1;durP1;ratioP1;P2;durP2;ratioP2
7997;SDS011;4044;49.814;7.828;2023-09-12T00:00:07;12.35;;;10.75;;
7997;SDS011;4044;49.814;7.828;2023-09-12T00:02:32;15.30;;;10.90;;
7997;SDS011;4044;49.814;7.828;2023-09-12T00:04:58;13.75;;;10.70;;
7997;SDS011;4044;49.814;7.828;2023-09-12T00:07:24;13.20;;;11.32;;
7997;SDS011;4044;49.814;7.828;2023-09-12T00:09:49;14.57;;;11.00;;
7997;SDS011;4044;49.814;7.828;2023-09-12T00:12:15;14.25;;;10.75;;
7997;SDS011;4044;49.814;7.828;2023-09-12T00:14:41;11.85;;;10.27;;
7997;SDS011;4044;49.814;7.828;2023-09-12T00:17:07;11.40;;;10.27;;
7997;SDS011;4044;49.814;7.828;2023-09-12T00:19:32;14.35;;;10.27;;
7997;SDS011;4044;49.814;7.828;2023-09-12T00:21:58;14.93;;;10.65;;
7997;SDS011;4044;49.814;7.828;2023-09-12T00:24:23;11.18;;;10.18;;
7997;SDS011;4044;49.814;7.828;2023-09-12T00:26:49;12.73;;;10.23;;
7997;SDS011;4044;49.814;7.828;2023-09-12T00:29:14;12.18;;;10.80;;
7997;SDS011;4044;49.814;7.828;2023-09-12T00:31:40;12.82;;;10.23;;
7997;SDS011;4044;49.814;7.828;2023-09-12T00:34:05;11.43;;;10.25;;
7997;SDS011;4044;49.814;7.828;2023-09-12T00:36:31;13.38;;;10.10;;
7997;SDS011;4044;49.814;7.828;2023-09-12T00:38:57;15.77;;;10.77;;
7997;SDS011;4044;49.814;7.828;2023-09-12T00:41:23;16.58;;;10.60;;
7997;SDS011;4044;49.814;7.828;2023-09-12T00:43:49;11.68;;;9.75;;
7997;SDS011;4044;49.814;7.828;2023-09-12T00:46:16;12.55;;;9.88;;
7997;SDS011;4044;49.814;7.828;2023-09-12T00:48:44;15.45;;;11.13;;
7997;SDS011;4044;49.814;7.828;2023-09-12T00:51:11;12.30;;;10.80;;
7997;SDS011;4044;49.814;7.828;2023-09-12T00:53:39;13.70;;;10.13;;
7997;SDS011;4044;49.814;7.828;2023-09-12T00:56:04;13.40;;;10.75;;
7997;SDS011;4044;49.814;7.828;2023-09-12T00:58:31;13.75;;;10.82;;
7997;SDS011;4044;49.814;7.828;2023-09-12T01:00:57;12.95;;;11.02;;
7997;SDS011;4044;49.814;7.828;2023-09-12T01:03:23;12.48;;;10.73;;
7997;SDS011;4044;49.814;7.828;2023-09-12T01:05:49;11.32;;;10.07;;
7997;SDS011;4044;49.814;7.828;2023-09-12T01:08:16;12.52;;;10.95;;
7997;SDS011;4044;49.814;7.828;2023-09-12T01:10:42;12.52;;;10.32;;
7997;SDS011;4044;49.814;7.828;2023-09-12T01:13:11;12.45;;;10.55;;
7997;SDS011;4044;49.814;7.828;2023-09-12T01:15:38;14.00;;;10.82;;
7997;SDS011;4044;49.814;7.828;2023-09-12T01:18:04;12.25;;;10.85;;
7997;SDS011;4044;49.814;7.828;2023-09-12T01:20:34;13.88;;;10.88;;
7997;SDS011;4044;49.814;7.828;2023-09-12T01:26:10;11.75;;;10.45;;
7997;SDS011;4044;49.814;7.828;2023-09-12T01:28:46;12.45;;;10.15;;
7997;SDS011;4044;49.814;7.828;2023-09-12T01:31:15;12.20;;;11.00;;
7997;SDS011;4044;49.814;7.828;2023-09-12T01:33:42;13.20;;;10.25;;
7997;SDS011;4044;49.814;7.828;2023-09-12T01:36:09;11.50;;;10.35;;
7997;SDS011;4044;49.814;7.828;2023-09-12T01:38:35;12.65;;;10.65;;
7997;SDS011;4044;49.814;7.828;2023-09-12T01:41:01;14.57;;;10.82;;
7997;SDS011;4044;49.814;7.828;2023-09-12T01:43:27;12.63;;;10.52;;
7997;SDS011;4044;49.814;7.828;2023-09-12T01:45:54;12.07;;;10.75;;
7997;SDS011;4044;49.814;7.828;2023-09-12T01:48:22;15.43;;;10.43;;
7997;SDS011;4044;49.814;7.828;2023-09-12T01:50:51;11.73;;;10.20;;
7997;SDS011;4044;49.814;7.828;2023-09-12T01:53:17;11.95;;;10.15;;
7997;SDS011;4044;49.814;7.828;2023-09-12T01:55:43;11.77;;;10.20;;
7997;SDS011;4044;49.814;7.828;2023-09-12T01:58:13;11.55;;;10.40;;
7997;SDS011;4044;49.814;7.828;2023-09-12T02:00:40;13.18;;;10.88;;
7997;SDS011;4044;49.814;7.828;2023-09-12T02:03:06;12.20;;;11.05;;
7997;SDS011;4044;49.814;7.828;2023-09-12T02:05:31;15.82;;;10.95;;
7997;SDS011;4044;49.814;7.828;2023-09-12T02:07:57;11.20;;;10.10;;
7997;SDS011;4044;49.814;7.828;2023-09-12T02:10:25;12.35;;;10.98;;
7997;SDS011;4044;49.814;7.828;2023-09-12T02:12:51;15.35;;;10.88;;
7997;SDS011;4044;49.814;7.828;2023-09-12T02:15:16;12.52;;;11.10;;
7997;SDS011;4044;49.814;7.828;2023-09-12T02:17:42;13.85;;;10.85;;
7997;SDS011;4044;49.814;7.828;2023-09-12T02:20:08;13.88;;;11.10;;
7997;SDS011;4044;49.814;7.828;2023-09-12T02:22:34;11.77;;;10.50;;
7997;SDS011;4044;49.814;7.828;2023-09-12T02:25:00;12.88;;;10.90;;
7997;SDS011;4044;49.814;7.828;2023-09-12T02:27:25;14.15;;;10.77;;
7997;SDS011;4044;49.814;7.828;2023-09-12T02:29:51;13.23;;;11.15;;
7997;SDS011;4044;49.814;7.828;2023-09-12T02:32:17;10.52;;;9.52;;
7997;SDS011;4044;49.814;7.828;2023-09-12T02:34:42;12.18;;;10.90;;
7997;SDS011;4044;49.814;7.828;2023-09-12T02:37:08;12.88;;;11.45;;
7997;SDS011;4044;49.814;7.828;2023-09-12T02:39:33;13.35;;;10.95;;
7997;SDS011;4044;49.814;7.828;2023-09-12T02:41:59;12.70;;;11.43;;
7997;SDS011;4044;49.814;7.828;2023-09-12T02:44:24;14.57;;;11.15;;
7997;SDS011;4044;49.814;7.828;2023-09-12T02:46:50;12.48;;;11.13;;
7997;SDS011;4044;49.814;7.828;2023-09-12T02:49:16;12.02;;;10.82;;
7997;SDS011;4044;49.814;7.828;2023-09-12T02:51:41;12.85;;;11.38;;
7997;SDS011;4044;49.814;7.828;2023-09-12T02:54:07;13.20;;;11.52;;
7997;SDS011;4044;49.814;7.828;2023-09-12T02:56:32;13.68;;;11.35;;
7997;SDS011;4044;49.814;7.828;2023-09-12T02:58:58;13.48;;;11.57;;
7997;SDS011;4044;49.814;7.828;2023-09-12T03:01:23;13.18;;;11.55;;
7997;SDS011;4044;49.814;7.828;2023-09-12T03:03:52;14.25;;;11.80;;
7997;SDS011;4044;49.814;7.828;2023-09-12T03:06:18;12.65;;;11.35;;
7997;SDS011;4044;49.814;7.828;2023-09-12T03:08:43;13.07;;;11.77;;
7997;SDS011;4044;49.814;7.828;2023-09-12T03:11:09;14.05;;;11.57;;
7997;SDS011;4044;49.814;7.828;2023-09-12T03:13:39;14.93;;;11.98;;
7997;SDS011;4044;49.814;7.828;2023-09-12T03:16:09;14.35;;;11.25;;
7997;SDS011;4044;49.814;7.828;2023-09-12T03:18:35;15.48;;;12.20;;
7997;SDS011;4044;49.814;7.828;2023-09-12T03:21:00;16.60;;;12.18;;
7997;SDS011;4044;49.814;7.828;2023-09-12T03:23:26;17.95;;;11.52;;
7997;SDS011;4044;49.814;7.828;2023-09-12T03:25:52;13.73;;;12.25;;
7997;SDS011;4044;49.814;7.828;2023-09-12T03:28:17;13.07;;;11.50;;
7997;SDS011;4044;49.814;7.828;2023-09-12T03:30:43;14.02;;;11.85;;
7997;SDS011;4044;49.814;7.828;2023-09-12T03:33:08;12.48;;;11.35;;
7997;SDS011;4044;49.814;7.828;2023-09-12T03:35:34;12.40;;;11.20;;
7997;SDS011;4044;49.814;7.828;2023-09-12T03:38:00;13.20;;;11.25;;
7997;SDS011;4044;49.814;7.828;2023-09-12T03:40:29;14.05;;;11.43;;
7997;SDS011;4044;49.814;7.828;2023-09-12T03:42:57;11.80;;;10.68;;
7997;SDS011;4044;49.814;7.828;2023-09-12T03:45:23;15.65;;;12.00;;
7997;SDS011;4044;49.814;7.828;2023-09-12T03:47:49;12.75;;;11.15;;
7997;SDS011;4044;49.814;7.828;2023-09-12T03:50:16;13.80;;;11.30;;
7997;SDS011;4044;49.814;7.828;2023-09-12T03:52:41;13.40;;;12.00;;
7997;SDS011;4044;49.814;7.828;2023-09-12T03:55:07;12.02;;;10.73;;
7997;SDS011;4044;49.814;7.828;2023-09-12T03:57:33;11.93;;;10.82;;
7997;SDS011;4044;49.814;7.828;2023-09-12T03:59:58;12.20;;;11.10;;
7997;SDS011;4044;49.814;7.828;2023-09-12T04:02:24;12.45;;;11.23;;
7997;SDS011;4044;49.814;7.828;2023-09-12T04:04:49;12.57;;;11.27;;
7997;SDS011;4044;49.814;7.828;2023-09-12T04:07:16;12.15;;;11.05;;
7997;SDS011;4044;49.814;7.828;2023-09-12T04:09:42;13.20;;;11.30;;
7997;SDS011;4044;49.814;7.828;2023-09-12T04:12:08;11.82;;;10.60;;
7997;SDS011;4044;49.814;7.828;2023-09-12T04:14:34;13.50;;;11.05;;
7997;SDS011;4044;49.814;7.828;2023-09-12T04:17:00;13.30;;;11.18;;
7997;SDS011;4044;49.814;7.828;2023-09-12T04:19:25;12.85;;;10.63;;
7997;SDS011;4044;49.814;7.828;2023-09-12T04:21:51;12.80;;;10.73;;
7997;SDS011;4044;49.814;7.828;2023-09-12T04:24:16;16.52;;;11.07;;
7997;SDS011;4044;49.814;7.828;2023-09-12T04:26:42;13.02;;;11.68;;
7997;SDS011;4044;49.814;7.828;2023-09-12T04:29:09;12.05;;;10.90;;
7997;SDS011;4044;49.814;7.828;2023-09-12T04:31:34;13.40;;;11.48;;
7997;SDS011;4044;49.814;7.828;2023-09-12T04:34:00;11.63;;;10.57;;
7997;SDS011;4044;49.814;7.828;2023-09-12T04:36:25;12.00;;;10.80;;
7997;SDS011;4044;49.814;7.828;2023-09-12T04:38:51;12.15;;;10.90;;
7997;SDS011;4044;49.814;7.828;2023-09-12T04:41:17;17.25;;;10.98;;
7997;SDS011;4044;49.814;7.828;2023-09-12T04:43:43;12.50;;;10.90;;
7997;SDS011;4044;49.814;7.828;2023-09-12T04:46:09;13.98;;;11.07;;
7997;SDS011;4044;49.814;7.828;2023-09-12T04:48:35;13.23;;;11.20;;
7997;SDS011;4044;49.814;7.828;2023-09-12T04:51:02;11.73;;;10.63;;
7997;SDS011;4044;49.814;7.828;2023-09-12T04:53:27;12.15;;;10.90;;
7997;SDS011;4044;49.814;7.828;2023-09-12T04:56:00;13.85;;;10.85;;
7997;SDS011;4044;49.814;7.828;2023-09-12T04:58:26;11.68;;;10.45;;
7997;SDS011;4044;49.814;7.828;2023-09-12T05:00:51;12.15;;;10.48;;
7997;SDS011;4044;49.814;7.828;2023-09-12T05:03:17;13.15;;;10.68;;
7997;SDS011;4044;49.814;7.828;2023-09-12T05:05:45;14.13;;;10.95;;
7997;SDS011;4044;49.814;7.828;2023-09-12T05:08:11;12.48;;;10.48;;
7997;SDS011;4044;49.814;7.828;2023-09-12T05:10:37;11.48;;;10.32;;
7997;SDS011;4044;49.814;7.828;2023-09-12T05:13:04;11.88;;;10.63;;
7997;SDS011;4044;49.814;7.828;2023-09-12T05:15:30;12.18;;;10.82;;
7997;SDS011;4044;49.814;7.828;2023-09-12T05:17:55;13.02;;;10.45;;
7997;SDS011;4044;49.814;7.828;2023-09-12T05:20:21;14.18;;;12.73;;
7997;SDS011;4044;49.814;7.828;2023-09-12T05:22:46;13.60;;;12.20;;
7997;SDS011;4044;49.814;7.828;2023-09-12T05:25:12;14.18;;;12.10;;
7997;SDS011;4044;49.814;7.828;2023-09-12T05:27:37;14.70;;;11.70;;
7997;SDS011;4044;49.814;7.828;2023-09-12T05:30:03;13.52;;;12.07;;
7997;SDS011;4044;49.814;7.828;2023-09-12T05:32:29;12.73;;;11.35;;
7997;SDS011;4044;49.814;7.828;2023-09-12T05:34:54;14.45;;;12.30;;
7997;SDS011;4044;49.814;7.828;2023-09-12T05:37:20;12.65;;;11.38;;
7997;SDS011;4044;49.814;7.828;2023-09-12T05:39:45;15.85;;;12.77;;
7997;SDS011;4044;49.814;7.828;2023-09-12T05:42:11;18.17;;;13.02;;
7997;SDS011;4044;49.814;7.828;2023-09-12T05:44:37;17.15;;;13.27;;
7997;SDS011;4044;49.814;7.828;2023-09-12T05:47:02;14.40;;;11.73;;
7997;SDS011;4044;49.814;7.828;2023-09-12T05:49:28;15.27;;;12.40;;
7997;SDS011;4044;49.814;7.828;2023-09-12T05:51:54;19.17;;;12.10;;
7997;SDS011;4044;49.814;7.828;2023-09-12T05:54:19;20.00;;;12.80;;
7997;SDS011;4044;49.814;7.828;2023-09-12T05:56:45;15.05;;;12.75;;
7997;SDS011;4044;49.814;7.828;2023-09-12T05:59:12;15.93;;;12.70;;
7997;SDS011;4044;49.814;7.828;2023-09-12T06:01:38;17.55;;;12.73;;
7997;SDS011;4044;49.814;7.828;2023-09-12T06:04:04;19.67;;;12.75;;
7997;SDS011;4044;49.814;7.828;2023-09-12T06:06:29;20.70;;;13.45;;
7997;SDS011;4044;49.814;7.828;2023-09-12T06:08:55;29.08;;;14.50;;
7997;SDS011;4044;49.814;7.828;2023-09-12T06:11:21;20.98;;;13.35;;
7997;SDS011;4044;49.814;7.828;2023-09-12T06:13:47;24.80;;;13.68;;
7997;SDS011;4044;49.814;7.828;2023-09-12T06:16:12;25.90;;;13.50;;
7997;SDS011;4044;49.814;7.828;2023-09-12T06:18:38;23.98;;;13.60;;
7997;SDS011;4044;49.814;7.828;2023-09-12T06:21:03;22.98;;;13.70;;
7997;SDS011;4044;49.814;7.828;2023-09-12T06:23:31;16.60;;;13.00;;
7997;SDS011;4044;49.814;7.828;2023-09-12T06:25:56;15.10;;;12.02;;
7997;SDS011;4044;49.814;7.828;2023-09-12T06:28:26;17.05;;;13.00;;
7997;SDS011;4044;49.814;7.828;2023-09-12T06:30:52;16.17;;;12.48;;
7997;SDS011;4044;49.814;7.828;2023-09-12T06:33:18;14.25;;;12.45;;
7997;SDS011;4044;49.814;7.828;2023-09-12T06:35:43;16.98;;;12.02;;
7997;SDS011;4044;49.814;7.828;2023-09-12T06:38:13;16.13;;;12.68;;
7997;SDS011;4044;49.814;7.828;2023-09-12T06:40:38;18.52;;;12.40;;
7997;SDS011;4044;49.814;7.828;2023-09-12T06:43:04;22.00;;;12.43;;
7997;SDS011;4044;49.814;7.828;2023-09-12T06:45:29;14.20;;;12.80;;
7997;SDS011;4044;49.814;7.828;2023-09-12T06:47:57;15.48;;;12.25;;
7997;SDS011;4044;49.814;7.828;2023-09-12T06:50:23;14.02;;;12.15;;
7997;SDS011;4044;49.814;7.828;2023-09-12T06:52:48;17.40;;;11.65;;
7997;SDS011;4044;49.814;7.828;2023-09-12T06:55:14;17.92;;;11.60;;
7997;SDS011;4044;49.814;7.828;2023-09-12T06:57:39;13.50;;;11.88;;
7997;SDS011;4044;49.814;7.828;2023-09-12T07:00:05;20.35;;;12.13;;
7997;SDS011;4044;49.814;7.828;2023-09-12T07:02:32;22.08;;;11.60;;
7997;SDS011;4044;49.814;7.828;2023-09-12T07:04:58;13.20;;;11.07;;
7997;SDS011;4044;49.814;7.828;2023-09-12T07:07:23;16.98;;;10.70;;
7997;SDS011;4044;49.814;7.828;2023-09-12T07:09:49;16.33;;;11.07;;
7997;SDS011;4044;49.814;7.828;2023-09-12T07:12:14;17.95;;;10.63;;
7997;SDS011;4044;49.814;7.828;2023-09-12T07:14:40;15.82;;;10.82;;
7997;SDS011;4044;49.814;7.828;2023-09-12T07:17:06;21.90;;;11.10;;
7997;SDS011;4044;49.814;7.828;2023-09-12T07:19:32;18.13;;;10.70;;
7997;SDS011;4044;49.814;7.828;2023-09-12T07:21:58;16.42;;;10.38;;
7997;SDS011;4044;49.814;7.828;2023-09-12T07:24:26;19.38;;;10.07;;
7997;SDS011;4044;49.814;7.828;2023-09-12T07:26:52;28.77;;;10.75;;
7997;SDS011;4044;49.814;7.828;2023-09-12T07:29:18;21.42;;;10.48;;
7997;SDS011;4044;49.814;7.828;2023-09-12T07:31:44;13.27;;;10.00;;
7997;SDS011;4044;49.814;7.828;2023-09-12T07:34:09;13.32;;;9.60;;
7997;SDS011;4044;49.814;7.828;2023-09-12T07:36:36;14.25;;;10.00;;
7997;SDS011;4044;49.814;7.828;2023-09-12T07:39:02;14.15;;;9.57;;
7997;SDS011;4044;49.814;7.828;2023-09-12T07:41:29;14.65;;;9.98;;
7997;SDS011;4044;49.814;7.828;2023-09-12T07:43:54;11.13;;;9.52;;
7997;SDS011;4044;49.814;7.828;2023-09-12T07:46:20;12.00;;;9.05;;
7997;SDS011;4044;49.814;7.828;2023-09-12T07:48:46;13.90;;;10.20;;
7997;SDS011;4044;49.814;7.828;2023-09-12T07:51:12;10.75;;;9.55;;
7997;SDS011;4044;49.814;7.828;2023-09-12T07:53:42;12.27;;;9.23;;
7997;SDS011;4044;49.814;7.828;2023-09-12T07:56:08;11.85;;;9.70;;
7997;SDS011;4044;49.814;7.828;2023-09-12T07:58:35;9.90;;;8.77;;
7997;SDS011;4044;49.814;7.828;2023-09-12T08:01:05;11.75;;;8.65;;
7997;SDS011;4044;49.814;7.828;2023-09-12T08:03:32;10.95;;;9.52;;
7997;SDS011;4044;49.814;7.828;2023-09-12T08:05:58;15.68;;;8.50;;
7997;SDS011;4044;49.814;7.828;2023-09-12T08:08:24;9.63;;;8.60;;
7997;SDS011;4044;49.814;7.828;2023-09-12T08:10:49;10.43;;;8.52;;
7997;SDS011;4044;49.814;7.828;2023-09-12T08:13:15;14.52;;;9.70;;
7997;SDS011;4044;49.814;7.828;2023-09-12T08:15:40;10.93;;;8.63;;
7997;SDS011;4044;49.814;7.828;2023-09-12T08:18:06;12.98;;;9.30;;
7997;SDS011;4044;49.814;7.828;2023-09-12T08:20:31;26.00;;;9.52;;
7997;SDS011;4044;49.814;7.828;2023-09-12T08:22:57;24.55;;;9.95;;
7997;SDS011;4044;49.814;7.828;2023-09-12T08:25:22;21.23;;;8.98;;
7997;SDS011;4044;49.814;7.828;2023-09-12T08:27:49;19.90;;;9.10;;
7997;SDS011;4044;49.814;7.828;2023-09-12T08:30:15;28.58;;;10.38;;
7997;SDS011;4044;49.814;7.828;2023-09-12T08:32:41;14.38;;;8.57;;
7997;SDS011;4044;49.814;7.828;2023-09-12T08:35:09;12.73;;;8.18;;
7997;SDS011;4044;49.814;7.828;2023-09-12T08:37:38;17.23;;;9.00;;
7997;SDS011;4044;49.814;7.828;2023-09-12T08:40:05;12.77;;;9.00;;
7997;SDS011;4044;49.814;7.828;2023-09-12T08:42:35;14.13;;;8.57;;
7997;SDS011;4044;49.814;7.828;2023-09-12T08:45:14;15.98;;;9.45;;
7997;SDS011;4044;49.814;7.828;2023-09-12T08:47:41;15.05;;;9.13;;
7997;SDS011;4044;49.814;7.828;2023-09-12T08:50:11;18.38;;;9.48;;
7997;SDS011;4044;49.814;7.828;2023-09-12T08:52:42;11.88;;;8.40;;
7997;SDS011;4044;49.814;7.828;2023-09-12T08:55:09;14.70;;;9.15;;
7997;SDS011;4044;49.814;7.828;2023-09-12T08:57:39;15.15;;;9.48;;
7997;SDS011;4044;49.814;7.828;2023-09-12T09:00:07;15.38;;;8.98;;
7997;SDS011;4044;49.814;7.828;2023-09-12T09:02:38;13.82;;;8.93;;
7997;SDS011;4044;49.814;7.828;2023-09-12T09:05:08;13.35;;;8.80;;
7997;SDS011;4044;49.814;7.828;2023-09-12T09:07:38;10.65;;;8.35;;
7997;SDS011;4044;49.814;7.828;2023-09-12T09:10:05;14.10;;;8.18;;
7997;SDS011;4044;49.814;7.828;2023-09-12T09:12:33;15.50;;;8.48;;
7997;SDS011;4044;49.814;7.828;2023-09-12T09:14:59;13.07;;;8.38;;
7997;SDS011;4044;49.814;7.828;2023-09-12T09:17:44;12.23;;;8.25;;
7997;SDS011;4044;49.814;7.828;2023-09-12T09:20:10;14.82;;;8.52;;
7997;SDS011;4044;49.814;7.828;2023-09-12T09:22:58;14.10;;;8.35;;
7997;SDS011;4044;49.814;7.828;2023-09-12T09:25:30;12.68;;;8.23;;
7997;SDS011;4044;49.814;7.828;2023-09-12T09:27:56;13.50;;;8.38;;
7997;SDS011;4044;49.814;7.828;2023-09-12T09:30:38;13.10;;;8.13;;
7997;SDS011;4044;49.814;7.828;2023-09-12T09:33:11;11.73;;;8.15;;
7997;SDS011;4044;49.814;7.828;2023-09-12T09:35:38;13.52;;;7.90;;
7997;SDS011;4044;49.814;7.828;2023-09-12T09:38:06;12.00;;;8.32;;
7997;SDS011;4044;49.814;7.828;2023-09-12T09:40:33;13.95;;;8.77;;
7997;SDS011;4044;49.814;7.828;2023-09-12T09:42:59;14.63;;;8.05;;
7997;SDS011;4044;49.814;7.828;2023-09-12T09:45:27;12.45;;;9.05;;
7997;SDS011;4044;49.814;7.828;2023-09-12T09:47:56;13.05;;;7.72;;
7997;SDS011;4044;49.814;7.828;2023-09-12T09:50:23;13.98;;;8.40;;
7997;SDS011;4044;49.814;7.828;2023-09-12T09:52:52;13.02;;;8.25;;
7997;SDS011;4044;49.814;7.828;2023-09-12T09:55:19;10.10;;;7.93;;
7997;SDS011;4044;49.814;7.828;2023-09-12T09:57:45;13.55;;;8.38;;
7997;SDS011;4044;49.814;7.828;2023-09-12T10:00:10;11.93;;;7.82;;
7997;SDS011;4044;49.814;7.828;2023-09-12T10:02:40;13.20;;;8.32;;
7997;SDS011;4044;49.814;7.828;2023-09-12T10:05:06;13.85;;;8.10;;
7997;SDS011;4044;49.814;7.828;2023-09-12T10:07:36;11.25;;;7.80;;
7997;SDS011;4044;49.814;7.828;2023-09-12T10:10:03;10.40;;;7.38;;
7997;SDS011;4044;49.814;7.828;2023-09-12T10:12:33;12.00;;;7.80;;
7997;SDS011;4044;49.814;7.828;2023-09-12T10:15:01;11.77;;;8.15;;
7997;SDS011;4044;49.814;7.828;2023-09-12T10:17:30;11.23;;;7.85;;
7997;SDS011;4044;49.814;7.828;2023-09-12T10:20:01;9.90;;;7.38;;
7997;SDS011;4044;49.814;7.828;2023-09-12T10:22:51;9.02;;;7.78;;
7997;SDS011;4044;49.814;7.828;2023-09-12T10:25:24;11.88;;;8.35;;
7997;SDS011;4044;49.814;7.828;2023-09-12T10:27:52;11.68;;;7.72;;
7997;SDS011;4044;49.814;7.828;2023-09-12T10:30:18;9.27;;;7.10;;
7997;SDS011;4044;49.814;7.828;2023-09-12T10:32:46;8.60;;;7.72;;
7997;SDS011;4044;49.814;7.828;2023-09-12T10:35:13;10.25;;;7.32;;
7997;SDS011;4044;49.814;7.828;2023-09-12T10:37:39;12.35;;;7.43;;
7997;SDS011;4044;49.814;7.828;2023-09-12T10:40:07;9.75;;;7.25;;
7997;SDS011;4044;49.814;7.828;2023-09-12T10:42:33;14.65;;;7.40;;
7997;SDS011;4044;49.814;7.828;2023-09-12T10:45:00;15.32;;;7.15;;
7997;SDS011;4044;49.814;7.828;2023-09-12T10:47:28;15.52;;;7.97;;
7997;SDS011;4044;49.814;7.828;2023-09-12T10:49:55;13.60;;;7.43;;
7997;SDS011;4044;49.814;7.828;2023-09-12T10:52:25;9.75;;;7.53;;
7997;SDS011;4044;49.814;7.828;2023-09-12T10:54:51;10.98;;;7.50;;
7997;SDS011;4044;49.814;7.828;2023-09-12T10:57:19;13.85;;;7.75;;
7997;SDS011;4044;49.814;7.828;2023-09-12T11:02:38;9.35;;;7.65;;
7997;SDS011;4044;49.814;7.828;2023-09-12T11:05:05;10.00;;;7.47;;
7997;SDS011;4044;49.814;7.828;2023-09-12T11:07:51;13.50;;;7.47;;
7997;SDS011;4044;49.814;7.828;2023-09-12T11:10:25;11.75;;;8.13;;
7997;SDS011;4044;49.814;7.828;2023-09-12T11:12:52;14.00;;;7.60;;
7997;SDS011;4044;49.814;7.828;2023-09-12T11:15:20;8.60;;;7.68;;
7997;SDS011;4044;49.814;7.828;2023-09-12T11:17:47;9.45;;;7.13;;
7997;SDS011;4044;49.814;7.828;2023-09-12T11:20:14;11.35;;;7.13;;
7997;SDS011;4044;49.814;7.828;2023-09-12T11:22:45;10.13;;;7.05;;
7997;SDS011;4044;49.814;7.828;2023-09-12T11:25:24;8.38;;;7.05;;
7997;SDS011;4044;49.814;7.828;2023-09-12T11:30:20;9.95;;;7.45;;
7997;SDS011;4044;49.814;7.828;2023-09-12T11:32:47;9.85;;;7.22;;
7997;SDS011;4044;49.814;7.828;2023-09-12T11:35:15;10.98;;;7.63;;
7997;SDS011;4044;49.814;7.828;2023-09-12T11:37:47;10.52;;;7.63;;
7997;SDS011;4044;49.814;7.828;2023-09-12T11:42:40;10.02;;;7.45;;
7997;SDS011;4044;49.814;7.828;2023-09-12T11:45:10;9.80;;;7.70;;
7997;SDS011;4044;49.814;7.828;2023-09-12T11:47:40;8.20;;;7.03;;
7997;SDS011;4044;49.814;7.828;2023-09-12T11:50:25;9.63;;;7.55;;
7997;SDS011;4044;49.814;7.828;2023-09-12T11:53:10;8.10;;;7.30;;
7997;SDS011;4044;49.814;7.828;2023-09-12T11:55:43;10.55;;;7.55;;
7997;SDS011;4044;49.814;7.828;2023-09-12T11:58:11;9.93;;;7.68;;
7997;SDS011;4044;49.814;7.828;2023-09-12T12:00:42;10.25;;;7.43;;
7997;SDS011;4044;49.814;7.828;2023-09-12T12:03:16;8.07;;;7.25;;
7997;SDS011;4044;49.814;7.828;2023-09-12T12:05:43;11.73;;;7.63;;
7997;SDS011;4044;49.814;7.828;2023-09-12T12:08:09;12.38;;;7.18;;
7997;SDS011;4044;49.814;7.828;2023-09-12T12:10:35;9.65;;;7.07;;
7997;SDS011;4044;49.814;7.828;2023-09-12T12:13:03;11.90;;;7.53;;
7997;SDS011;4044;49.814;7.828;2023-09-12T12:15:28;11.02;;;7.88;;
7997;SDS011;4044;49.814;7.828;2023-09-12T12:17:54;8.63;;;7.85;;
7997;SDS011;4044;49.814;7.828;2023-09-12T12:20:21;8.88;;;7.40;;
7997;SDS011;4044;49.814;7.828;2023-09-12T12:22:47;9.80;;;7.40;;
7997;SDS011;4044;49.814;7.828;2023-09-12T12:25:13;11.43;;;7.88;;
7997;SDS011;4044;49.814;7.828;2023-09-12T12:27:41;9.30;;;7.80;;
7997;SDS011;4044;49.814;7.828;2023-09-12T12:30:08;9.40;;;7.30;;
7997;SDS011;4044;49.814;7.828;2023-09-12T12:32:45;10.07;;;7.63;;
7997;SDS011;4044;49.814;7.828;2023-09-12T12:35:18;10.25;;;8.05;;
7997;SDS011;4044;49.814;7.828;2023-09-12T12:37:47;12.25;;;7.78;;
7997;SDS011;4044;49.814;7.828;2023-09-12T12:40:18;7.50;;;6.85;;
7997;SDS011;4044;49.814;7.828;2023-09-12T12:42:44;10.90;;;7.65;;
7997;SDS011;4044;49.814;7.828;2023-09-12T12:45:13;7.65;;;6.95;;
7997;SDS011;4044;49.814;7.828;2023-09-12T12:47:40;8.32;;;7.40;;
7997;SDS011;4044;49.814;7.828;2023-09-12T12:50:15;9.65;;;7.53;;
7997;SDS011;4044;49.814;7.828;2023-09-12T12:52:42;12.55;;;7.72;;
7997;SDS011;4044;49.814;7.828;2023-09-12T12:55:11;10.07;;;7.72;;
7997;SDS011;4044;49.814;7.828;2023-09-12T12:57:41;8.10;;;7.18;;
7997;SDS011;4044;49.814;7.828;2023-09-12T13:00:08;9.27;;;7.55;;
7997;SDS011;4044;49.814;7.828;2023-09-12T13:02:36;9.65;;;7.40;;
7997;SDS011;4044;49.814;7.828;2023-09-12T13:05:02;13.60;;;7.20;;
7997;SDS011;4044;49.814;7.828;2023-09-12T13:07:28;8.48;;;6.70;;
7997;SDS011;4044;49.814;7.828;2023-09-12T13:09:54;8.45;;;6.88;;
7997;SDS011;4044;49.814;7.828;2023-09-12T13:12:19;9.07;;;7.03;;
7997;SDS011;4044;49.814;7.828;2023-09-12T13:14:45;12.48;;;7.70;;
7997;SDS011;4044;49.814;7.828;2023-09-12T13:17:11;10.73;;;6.60;;
7997;SDS011;4044;49.814;7.828;2023-09-12T13:19:37;9.52;;;7.45;;
7997;SDS011;4044;49.814;7.828;2023-09-12T13:22:02;11.05;;;7.00;;
7997;SDS011;4044;49.814;7.828;2023-09-12T13:24:28;11.93;;;6.90;;
7997;SDS011;4044;49.814;7.828;2023-09-12T13:26:53;7.82;;;6.40;;
7997;SDS011;4044;49.814;7.828;2023-09-12T13:29:19;11.80;;;7.00;;
7997;SDS011;4044;49.814;7.828;2023-09-12T13:31:44;13.88;;;7.80;;
7997;SDS011;4044;49.814;7.828;2023-09-12T13:34:10;8.82;;;6.88;;
7997;SDS011;4044;49.814;7.828;2023-09-12T13:36:36;6.80;;;6.20;;
7997;SDS011;4044;49.814;7.828;2023-09-12T13:39:01;7.53;;;6.55;;
7997;SDS011;4044;49.814;7.828;2023-09-12T13:41:27;10.25;;;7.10;;
7997;SDS011;4044;49.814;7.828;2023-09-12T13:43:53;6.72;;;6.10;;
7997;SDS011;4044;49.814;7.828;2023-09-12T13:46:18;7.20;;;6.50;;
7997;SDS011;4044;49.814;7.828;2023-09-12T13:48:44;8.20;;;7.15;;
7997;SDS011;4044;49.814;7.828;2023-09-12T13:51:09;10.48;;;7.00;;
7997;SDS011;4044;49.814;7.828;2023-09-12T13:53:35;9.50;;;6.70;;
7997;SDS011;4044;49.814;7.828;2023-09-12T13:56:00;7.30;;;6.40;;
7997;SDS011;4044;49.814;7.828;2023-09-12T13:58:27;8.93;;;6.10;;
7997;SDS011;4044;49.814;7.828;2023-09-12T14:00:52;8.73;;;6.53;;
7997;SDS011;4044;49.814;7.828;2023-09-12T14:03:18;7.80;;;6.30;;
7997;SDS011;4044;49.814;7.828;2023-09-12T14:05:43;8.88;;;6.38;;
7997;SDS011;4044;49.814;7.828;2023-09-12T14:08:09;9.52;;;6.45;;
7997;SDS011;4044;49.814;7.828;2023-09-12T14:10:35;7.47;;;6.75;;
7997;SDS011;4044;49.814;7.828;2023-09-12T14:13:00;7.35;;;6.45;;
7997;SDS011;4044;49.814;7.828;2023-09-12T14:15:26;9.35;;;6.32;;
7997;SDS011;4044;49.814;7.828;2023-09-12T14:17:51;9.65;;;6.57;;
7997;SDS011;4044;49.814;7.828;2023-09-12T14:20:17;11.85;;;6.63;;
7997;SDS011;4044;49.814;7.828;2023-09-12T14:22:43;7.15;;;6.45;;
7997;SDS011;4044;49.814;7.828;2023-09-12T14:25:09;9.48;;;6.57;;
7997;SDS011;4044;49.814;7.828;2023-09-12T14:27:42;7.50;;;6.63;;
7997;SDS011;4044;49.814;7.828;2023-09-12T14:30:08;7.82;;;6.95;;
7997;SDS011;4044;49.814;7.828;2023-09-12T14:32:35;6.93;;;6.40;;
7997;SDS011;4044;49.814;7.828;2023-09-12T14:35:00;9.45;;;6.93;;
7997;SDS011;4044;49.814;7.828;2023-09-12T14:37:26;10.00;;;7.13;;
7997;SDS011;4044;49.814;7.828;2023-09-12T14:39:52;8.52;;;6.22;;
7997;SDS011;4044;49.814;7.828;2023-09-12T14:42:20;10.25;;;6.25;;
7997;SDS011;4044;49.814;7.828;2023-09-12T14:44:45;6.72;;;6.13;;
7997;SDS011;4044;49.814;7.828;2023-09-12T14:47:11;7.38;;;6.68;;
7997;SDS011;4044;49.814;7.828;2023-09-12T14:49:36;7.22;;;6.50;;
7997;SDS011;4044;49.814;7.828;2023-09-12T14:52:02;7.32;;;6.22;;
7997;SDS011;4044;49.814;7.828;2023-09-12T14:54:28;9.30;;;6.15;;
7997;SDS011;4044;49.814;7.828;2023-09-12T14:56:53;8.18;;;6.00;;
7997;SDS011;4044;49.814;7.828;2023-09-12T14:59:19;7.38;;;6.53;;
7997;SDS011;4044;49.814;7.828;2023-09-12T15:01:45;9.75;;;7.10;;
7997;SDS011;4044;49.814;7.828;2023-09-12T15:04:11;9.13;;;6.70;;
7997;SDS011;4044;49.814;7.828;2023-09-12T15:06:36;7.18;;;6.47;;